Time;durP1;ratioP1;P1;durP2;ratioP2;P2;SDS_P1;SDS_P2;PMS_P1;PMS_P2;Temp;Humidity;BMP_temperature;BMP_pressure;BME280_temperature;BME280_humidity;BME280_pressure;Samples;Min_cycle;Max_cycle;Signal;HPM_P1;HPM_P2
2022/05/17 00:02:23;;;;;;;20.87;10.47;;;;;;;;;;5050100;28;20051;-62
2022/05/17 00:04:50;;;;;;;19.60;10.43;;;;;;;;;;5059112;28;20041;-62
2022/05/17 00:07:16;;;;;;;24.93;12.03;;;;;;;;;;5049780;28;20047;-62
2022/05/17 00:09:42;;;;;;;26.37;10.50;;;;;;;;;;5053849;28;20099;-62
2022/05/17 00:12:09;;;;;;;25.20;10.43;;;;;;;;;;5050864;28;20049;-62
2022/05/17 00:14:35;;;;;;;25.80;10.87;;;;;;;;;;5049191;28;20056;-62
2022/05/17 00:17:01;;;;;;;22.73;10.40;;;;;;;;;;5049888;28;20079;-62
2022/05/17 00:19:28;;;;;;;23.83;10.20;;;;;;;;;;5058034;28;20602;-63
2022/05/17 00:21:55;;;;;;;26.13;10.53;;;;;;;;;;5050891;28;20052;-62
2022/05/17 00:24:22;;;;;;;27.90;10.43;;;;;;;;;;5049881;28;20053;-62
2022/05/17 00:26:48;;;;;;;22.13;9.37;;;;;;;;;;5066539;28;20558;-62
2022/05/17 00:29:14;;;;;;;25.27;9.90;;;;;;;;;;5068502;28;20055;-62
2022/05/17 00:31:40;;;;;;;28.83;9.77;;;;;;;;;;5067861;28;20071;-62
2022/05/17 00:34:07;;;;;;;33.03;10.17;;;;;;;;;;5048883;28;20056;-62
2022/05/17 00:36:34;;;;;;;25.53;10.20;;;;;;;;;;5048312;28;20057;-62
2022/05/17 00:39:00;;;;;;;24.53;9.70;;;;;;;;;;5051967;28;20065;-62
2022/05/17 00:41:27;;;;;;;22.70;9.57;;;;;;;;;;5048659;28;20041;-62
2022/05/17 00:46:40;;;;;;;26.83;10.83;;;;;;;;;;5051089;28;20571;-62
2022/05/17 00:49:09;;;;;;;31.03;11.03;;;;;;;;;;5066392;28;20094;-62
2022/05/17 00:51:35;;;;;;;26.90;10.50;;;;;;;;;;5068318;28;20494;-62
2022/05/17 00:54:12;;;;;;;24.03;10.90;;;;;;;;;;5068417;28;20040;-62
2022/05/17 00:56:41;;;;;;;27.80;10.97;;;;;;;;;;5068757;28;20037;-62
2022/05/17 00:59:08;;;;;;;22.50;10.10;;;;;;;;;;5058675;28;20053;-62
2022/05/17 01:01:34;;;;;;;30.57;10.00;;;;;;;;;;5047309;28;20047;-62
2022/05/17 01:04:08;;;;;;;29.97;10.50;;;;;;;;;;5047383;28;20056;-62
2022/05/17 01:06:36;;;;;;;28.37;10.87;;;;;;;;;;5048973;28;20045;-62
2022/05/17 01:09:02;;;;;;;29.37;10.83;;;;;;;;;;5047397;28;20053;-62
2022/05/17 01:11:28;;;;;;;24.43;10.07;;;;;;;;;;5048743;28;20067;-62
2022/05/17 01:16:40;;;;;;;26.07;10.83;;;;;;;;;;5048764;28;20049;-62
2022/05/17 01:19:07;;;;;;;21.33;10.50;;;;;;;;;;5048607;28;20091;-62
2022/05/17 01:21:34;;;;;;;27.30;11.83;;;;;;;;;;5052844;28;20080;-62
2022/05/17 01:24:00;;;;;;;26.20;10.00;;;;;;;;;;5068437;28;20377;-62
2022/05/17 01:26:27;;;;;;;31.90;11.23;;;;;;;;;;5052592;28;20088;-62
2022/05/17 01:28:53;;;;;;;27.20;13.27;;;;;;;;;;5048406;28;20084;-62
2022/05/17 01:31:19;;;;;;;31.93;11.40;;;;;;;;;;5051493;28;20075;-62
2022/05/17 01:33:45;;;;;;;30.57;12.07;;;;;;;;;;5055672;28;20045;-62
2022/05/17 01:36:12;;;;;;;34.37;12.83;;;;;;;;;;5048586;28;20052;-62
2022/05/17 01:38:39;;;;;;;24.37;12.40;;;;;;;;;;5047690;28;20163;-62
2022/05/17 01:41:05;;;;;;;25.53;13.47;;;;;;;;;;5049271;28;20081;-62
2022/05/17 01:43:31;;;;;;;32.53;13.57;;;;;;;;;;5056826;28;20072;-62
2022/05/17 01:45:57;;;;;;;31.97;13.83;;;;;;;;;;5048015;28;20092;-62
2022/05/17 01:48:23;;;;;;;31.10;14.37;;;;;;;;;;5049706;28;20045;-62
2022/05/17 01:50:49;;;;;;;31.40;13.90;;;;;;;;;;5047174;28;20056;-62
2022/05/17 01:53:15;;;;;;;22.63;12.20;;;;;;;;;;5048171;28;20049;-62
2022/05/17 01:55:41;;;;;;;35.27;13.93;;;;;;;;;;5049152;28;20044;-62
2022/05/17 01:58:07;;;;;;;28.83;13.80;;;;;;;;;;5059494;28;20051;-62
2022/05/17 02:00:33;;;;;;;33.87;16.67;;;;;;;;;;5068994;28;20048;-62
2022/05/17 02:02:59;;;;;;;26.17;14.07;;;;;;;;;;5072146;28;20051;-62
2022/05/17 02:05:26;;;;;;;34.43;15.03;;;;;;;;;;5059705;28;20075;-62
2022/05/17 02:07:52;;;;;;;32.13;14.60;;;;;;;;;;5071643;28;20048;-62
2022/05/17 02:10:19;;;;;;;32.20;14.70;;;;;;;;;;5054207;28;20041;-62
2022/05/17 02:12:45;;;;;;;33.17;16.27;;;;;;;;;;5069375;28;20453;-62
2022/05/17 02:15:11;;;;;;;37.17;16.73;;;;;;;;;;5071805;28;20499;-62
2022/05/17 02:17:38;;;;;;;43.23;16.73;;;;;;;;;;5070455;28;20402;-62
2022/05/17 02:20:05;;;;;;;36.87;16.67;;;;;;;;;;5071549;28;20055;-62
2022/05/17 02:22:31;;;;;;;30.67;15.70;;;;;;;;;;5060634;28;20048;-62
2022/05/17 02:24:57;;;;;;;37.87;19.30;;;;;;;;;;5072041;28;20040;-62
2022/05/17 02:27:23;;;;;;;35.73;18.30;;;;;;;;;;5071893;28;20460;-62
2022/05/17 02:29:49;;;;;;;35.00;16.70;;;;;;;;;;5069960;28;20620;-62
2022/05/17 02:32:16;;;;;;;42.83;18.03;;;;;;;;;;5059136;28;20041;-62
2022/05/17 02:34:42;;;;;;;34.53;16.90;;;;;;;;;;5060894;28;20048;-62
2022/05/17 02:37:08;;;;;;;34.03;18.57;;;;;;;;;;5066664;28;20105;-62
2022/05/17 02:39:34;;;;;;;36.40;17.23;;;;;;;;;;5071287;28;20147;-62
2022/05/17 02:42:01;;;;;;;33.17;17.63;;;;;;;;;;5070678;28;20118;-62
2022/05/17 02:44:28;;;;;;;44.47;19.03;;;;;;;;;;5069805;28;20059;-62
2022/05/17 02:46:55;;;;;;;41.77;19.57;;;;;;;;;;5060150;28;20041;-62
2022/05/17 02:49:21;;;;;;;43.40;17.73;;;;;;;;;;5070715;28;20439;-62
2022/05/17 02:51:47;;;;;;;36.13;19.30;;;;;;;;;;5051019;28;20037;-62
2022/05/17 02:54:13;;;;;;;38.07;19.23;;;;;;;;;;5052473;28;20091;-62
2022/05/17 02:56:39;;;;;;;32.93;19.07;;;;;;;;;;5051411;28;20052;-62
2022/05/17 02:59:05;;;;;;;38.97;18.27;;;;;;;;;;5050871;28;20045;-62
2022/05/17 03:01:32;;;;;;;36.53;18.70;;;;;;;;;;5067570;28;20722;-62
2022/05/17 03:03:58;;;;;;;39.13;18.60;;;;;;;;;;5070968;28;20133;-62
2022/05/17 03:06:24;;;;;;;35.10;18.87;;;;;;;;;;5058093;28;20044;-62
2022/05/17 03:08:50;;;;;;;32.57;19.70;;;;;;;;;;5058378;28;20480;-62
2022/05/17 03:11:18;;;;;;;37.80;19.97;;;;;;;;;;5070477;28;20045;-62
2022/05/17 03:13:44;;;;;;;31.90;19.27;;;;;;;;;;5070942;28;20052;-62
2022/05/17 03:16:10;;;;;;;33.93;18.77;;;;;;;;;;5069318;28;20043;-63
2022/05/17 03:18:36;;;;;;;42.47;19.60;;;;;;;;;;5070910;28;20063;-62
2022/05/17 03:21:02;;;;;;;48.77;19.73;;;;;;;;;;5070768;28;20053;-62
2022/05/17 03:23:28;;;;;;;41.13;19.43;;;;;;;;;;5070706;28;20041;-62
2022/05/17 03:25:54;;;;;;;34.57;19.77;;;;;;;;;;5066425;28;20060;-62
2022/05/17 03:28:20;;;;;;;35.70;19.33;;;;;;;;;;5069862;28;20037;-62
2022/05/17 03:30:46;;;;;;;37.87;21.27;;;;;;;;;;5070777;28;20044;-62
2022/05/17 03:33:12;;;;;;;41.33;20.03;;;;;;;;;;5070534;28;20044;-62
2022/05/17 03:35:38;;;;;;;43.87;20.13;;;;;;;;;;5070291;28;20047;-62
2022/05/17 03:38:04;;;;;;;51.87;20.63;;;;;;;;;;5059889;28;20171;-61
2022/05/17 03:40:32;;;;;;;46.80;21.17;;;;;;;;;;5052362;28;20056;-62
2022/05/17 03:42:58;;;;;;;39.13;20.10;;;;;;;;;;5050062;28;20132;-62
2022/05/17 03:45:24;;;;;;;38.23;19.60;;;;;;;;;;5050857;28;20186;-62
2022/05/17 03:47:50;;;;;;;49.40;22.00;;;;;;;;;;5050011;28;20194;-62
2022/05/17 03:50:17;;;;;;;40.50;20.57;;;;;;;;;;5053488;28;20055;-62
2022/05/17 03:52:44;;;;;;;35.57;19.00;;;;;;;;;;5069495;28;20048;-62
2022/05/17 03:55:10;;;;;;;46.63;22.20;;;;;;;;;;5053394;28;20511;-62
2022/05/17 03:57:36;;;;;;;52.00;22.03;;;;;;;;;;5048413;28;20044;-62
2022/05/17 04:00:06;;;;;;;41.03;20.33;;;;;;;;;;5049836;28;20111;-62
2022/05/17 04:02:32;;;;;;;46.23;21.73;;;;;;;;;;5056893;28;20051;-62
2022/05/17 04:04:58;;;;;;;42.57;20.47;;;;;;;;;;5054673;28;20511;-62
2022/05/17 04:07:24;;;;;;;36.57;20.00;;;;;;;;;;5058060;28;20036;-62
2022/05/17 04:09:50;;;;;;;48.03;21.87;;;;;;;;;;5058842;28;20041;-62
2022/05/17 04:12:16;;;;;;;47.20;22.00;;;;;;;;;;5055971;28;20181;-62
2022/05/17 04:14:42;;;;;;;42.17;21.10;;;;;;;;;;5055772;28;20053;-62
2022/05/17 04:17:09;;;;;;;39.90;20.30;;;;;;;;;;5057619;28;20565;-62
2022/05/17 04:19:36;;;;;;;50.83;21.47;;;;;;;;;;5059365;28;20097;-62
2022/05/17 04:22:02;;;;;;;42.17;20.83;;;;;;;;;;5057382;28;20109;-62
2022/05/17 04:24:28;;;;;;;41.03;21.37;;;;;;;;;;5058855;28;20045;-62
2022/05/17 04:26:54;;;;;;;50.30;22.20;;;;;;;;;;5056802;28;20037;-62
2022/05/17 04:29:20;;;;;;;47.67;21.70;;;;;;;;;;5059131;28;20036;-65
2022/05/17 04:31:47;;;;;;;43.20;21.57;;;;;;;;;;5057912;28;20815;-62
2022/05/17 04:34:13;;;;;;;44.47;21.03;;;;;;;;;;5056797;28;20048;-63
2022/05/17 04:36:40;;;;;;;38.00;19.40;;;;;;;;;;5056463;28;20785;-62
2022/05/17 04:39:06;;;;;;;37.37;18.83;;;;;;;;;;5057173;28;20065;-62
2022/05/17 04:41:32;;;;;;;47.17;21.17;;;;;;;;;;5066267;28;20051;-62
2022/05/17 04:43:58;;;;;;;39.33;19.73;;;;;;;;;;5068807;28;20124;-62
2022/05/17 04:46:24;;;;;;;42.77;20.70;;;;;;;;;;5059446;28;20037;-63
2022/05/17 04:48:50;;;;;;;41.00;19.00;;;;;;;;;;5050639;28;20045;-62
2022/05/17 04:51:17;;;;;;;33.43;19.43;;;;;;;;;;5047400;28;20037;-62
2022/05/17 04:53:43;;;;;;;38.50;19.03;;;;;;;;;;5048133;28;20060;-62
2022/05/17 04:56:09;;;;;;;37.73;20.20;;;;;;;;;;5056881;28;20036;-62
2022/05/17 04:58:35;;;;;;;38.53;19.23;;;;;;;;;;5049427;28;20052;-62
2022/05/17 05:01:02;;;;;;;34.73;17.70;;;;;;;;;;5067513;28;20056;-62
2022/05/17 05:03:29;;;;;;;31.43;16.07;;;;;;;;;;5052908;28;20048;-62
2022/05/17 05:05:55;;;;;;;28.53;15.00;;;;;;;;;;5061629;28;20047;-62
2022/05/17 05:08:21;;;;;;;33.07;14.33;;;;;;;;;;5066551;28;20071;-63
2022/05/17 05:10:48;;;;;;;28.27;14.10;;;;;;;;;;5067325;28;20081;-62
2022/05/17 05:13:20;;;;;;;29.93;13.10;;;;;;;;;;5049015;28;20047;-62
2022/05/17 05:15:46;;;;;;;21.57;12.80;;;;;;;;;;5051655;28;20411;-63
2022/05/17 05:18:13;;;;;;;26.13;12.10;;;;;;;;;;5052831;28;20287;-62
2022/05/17 05:20:39;;;;;;;28.07;11.70;;;;;;;;;;5049785;28;20045;-62
2022/05/17 05:23:05;;;;;;;27.00;10.93;;;;;;;;;;5053642;28;20052;-62
2022/05/17 05:25:32;;;;;;;18.30;10.73;;;;;;;;;;5062280;28;20402;-62
2022/05/17 05:27:58;;;;;;;18.77;9.87;;;;;;;;;;5065731;28;20044;-62
2022/05/17 05:30:24;;;;;;;15.57;9.10;;;;;;;;;;5065820;28;20116;-63
2022/05/17 05:32:50;;;;;;;20.40;10.17;;;;;;;;;;5067118;28;20079;-63
2022/05/17 05:35:17;;;;;;;19.97;10.70;;;;;;;;;;5060007;28;20169;-62
2022/05/17 05:37:43;;;;;;;19.70;9.97;;;;;;;;;;5066917;28;20044;-62
2022/05/17 05:40:10;;;;;;;18.70;9.60;;;;;;;;;;5067439;28;20056;-62
2022/05/17 05:42:36;;;;;;;24.30;10.27;;;;;;;;;;5054977;28;20045;-63
2022/05/17 05:45:04;;;;;;;21.80;9.43;;;;;;;;;;5061460;28;20057;-62
2022/05/17 05:47:30;;;;;;;18.37;9.60;;;;;;;;;;5064005;28;20045;-63
2022/05/17 05:49:56;;;;;;;16.80;8.97;;;;;;;;;;5049627;28;20040;-63
2022/05/17 05:52:22;;;;;;;19.37;9.10;;;;;;;;;;5049713;28;20073;-62
2022/05/17 05:54:48;;;;;;;19.77;9.13;;;;;;;;;;5055519;28;20041;-63
2022/05/17 05:57:14;;;;;;;21.97;8.70;;;;;;;;;;5058931;28;20442;-63
2022/05/17 05:59:41;;;;;;;20.97;9.03;;;;;;;;;;5066913;28;20051;-63
2022/05/17 06:02:07;;;;;;;17.57;8.10;;;;;;;;;;5048084;28;20053;-62
2022/05/17 06:04:34;;;;;;;18.17;8.87;;;;;;;;;;5062112;28;20051;-62
2022/05/17 06:07:00;;;;;;;14.90;7.80;;;;;;;;;;5066091;28;20045;-63
2022/05/17 06:09:26;;;;;;;14.50;7.10;;;;;;;;;;5066837;28;20036;-63
2022/05/17 06:11:52;;;;;;;16.80;7.50;;;;;;;;;;5065765;28;20052;-62
2022/05/17 06:14:20;;;;;;;19.03;7.37;;;;;;;;;;5063797;28;20064;-62
2022/05/17 06:16:46;;;;;;;17.83;7.30;;;;;;;;;;5063070;28;20053;-62
2022/05/17 06:19:12;;;;;;;15.93;8.00;;;;;;;;;;5066563;28;20045;-62
2022/05/17 06:21:39;;;;;;;18.97;8.17;;;;;;;;;;5051790;28;20040;-62
2022/05/17 06:24:05;;;;;;;20.80;8.47;;;;;;;;;;5050934;28;20045;-62
2022/05/17 06:26:31;;;;;;;18.33;7.57;;;;;;;;;;5066027;28;20044;-62
2022/05/17 06:28:57;;;;;;;16.27;7.87;;;;;;;;;;5066203;28;20049;-62
2022/05/17 06:31:23;;;;;;;20.30;8.33;;;;;;;;;;5062965;28;20380;-62
2022/05/17 06:33:49;;;;;;;16.07;7.87;;;;;;;;;;5046654;28;20144;-62
2022/05/17 06:36:15;;;;;;;13.57;6.63;;;;;;;;;;5059458;28;20626;-62
2022/05/17 06:38:41;;;;;;;16.20;7.17;;;;;;;;;;5051944;28;20388;-62
2022/05/17 06:41:07;;;;;;;23.13;7.20;;;;;;;;;;5063292;28;20033;-62
2022/05/17 06:43:34;;;;;;;20.20;6.93;;;;;;;;;;5051299;28;20103;-62
2022/05/17 06:46:03;;;;;;;17.50;7.20;;;;;;;;;;5061251;28;20048;-62
2022/05/17 06:48:30;;;;;;;18.83;6.73;;;;;;;;;;5068598;28;20547;-62
2022/05/17 06:51:02;;;;;;;16.43;6.20;;;;;;;;;;5067444;28;20052;-62
2022/05/17 06:53:29;;;;;;;16.67;6.10;;;;;;;;;;5064672;28;20052;-62
2022/05/17 06:55:55;;;;;;;15.50;6.13;;;;;;;;;;5054336;28;20045;-62
2022/05/17 06:58:21;;;;;;;19.43;6.80;;;;;;;;;;5064321;28;20521;-62
2022/05/17 07:00:47;;;;;;;18.27;6.50;;;;;;;;;;5068120;28;20070;-62
2022/05/17 07:03:14;;;;;;;11.87;5.70;;;;;;;;;;5053364;28;20052;-62
2022/05/17 07:05:40;;;;;;;17.60;6.67;;;;;;;;;;5070222;28;20143;-62
2022/05/17 07:08:06;;;;;;;14.07;5.73;;;;;;;;;;5064597;28;20079;-62
2022/05/17 07:13:18;;;;;;;17.10;5.80;;;;;;;;;;5069401;28;20068;-62
2022/05/17 07:15:49;;;;;;;19.87;6.23;;;;;;;;;;5068168;28;20087;-62
2022/05/17 07:18:17;;;;;;;17.27;6.53;;;;;;;;;;5068498;28;20131;-62
2022/05/17 07:20:43;;;;;;;18.70;6.80;;;;;;;;;;5066435;28;20043;-62
2022/05/17 07:23:10;;;;;;;24.90;7.57;;;;;;;;;;5056572;28;20049;-61
2022/05/17 07:25:36;;;;;;;13.50;5.43;;;;;;;;;;5068295;28;20040;-62
2022/05/17 07:28:03;;;;;;;15.47;5.93;;;;;;;;;;5049826;28;20103;-62
2022/05/17 07:30:29;;;;;;;23.43;7.33;;;;;;;;;;5050132;28;20478;-62
2022/05/17 07:32:55;;;;;;;16.67;6.53;;;;;;;;;;5052513;28;20041;-62
2022/05/17 07:35:21;;;;;;;19.70;6.63;;;;;;;;;;5059937;28;20116;-62
2022/05/17 07:37:47;;;;;;;13.30;5.47;;;;;;;;;;5064768;28;20071;-62
2022/05/17 07:40:13;;;;;;;16.23;5.67;;;;;;;;;;5069162;28;20425;-62
2022/05/17 07:42:40;;;;;;;12.67;4.90;;;;;;;;;;5070207;28;20048;-61
2022/05/17 07:45:07;;;;;;;12.10;4.40;;;;;;;;;;5052084;28;20066;-61
2022/05/17 07:47:34;;;;;;;13.77;4.70;;;;;;;;;;5062592;28;20048;-62
2022/05/17 07:50:00;;;;;;;23.27;4.93;;;;;;;;;;5066209;28;20059;-61
2022/05/17 07:52:26;;;;;;;11.00;3.87;;;;;;;;;;5058843;28;20045;-61
2022/05/17 07:54:52;;;;;;;12.90;4.50;;;;;;;;;;5064636;28;20045;-61
2022/05/17 07:57:19;;;;;;;13.17;3.57;;;;;;;;;;5065373;28;20055;-61
2022/05/17 07:59:45;;;;;;;11.57;3.30;;;;;;;;;;5068403;28;20052;-61
2022/05/17 08:02:11;;;;;;;13.30;3.67;;;;;;;;;;5063977;28;20522;-61
2022/05/17 08:04:37;;;;;;;8.53;3.60;;;;;;;;;;5067325;28;20641;-61
2022/05/17 08:07:04;;;;;;;13.77;4.07;;;;;;;;;;5066865;28;20128;-61
2022/05/17 08:09:30;;;;;;;12.27;3.40;;;;;;;;;;5061613;28;20036;-61
2022/05/17 08:11:56;;;;;;;10.50;4.13;;;;;;;;;;5054471;28;20040;-61
2022/05/17 08:14:22;;;;;;;12.70;3.57;;;;;;;;;;5068974;28;20478;-61
2022/05/17 08:16:48;;;;;;;12.13;3.47;;;;;;;;;;5068767;28;20128;-61
2022/05/17 08:19:15;;;;;;;10.17;3.47;;;;;;;;;;5062883;28;20170;-61
2022/05/17 08:21:41;;;;;;;9.53;3.47;;;;;;;;;;5058517;28;20476;-61
2022/05/17 08:24:07;;;;;;;10.50;2.93;;;;;;;;;;5051397;28;20125;-61
2022/05/17 08:29:18;;;;;;;13.47;3.23;;;;;;;;;;5055318;28;20049;-61
2022/05/17 08:33:14;;;;;;;14.70;3.80;;;;;;;;;;5052116;28;20040;-62
2022/05/17 08:34:33;;;;;;;9.70;2.77;;;;;;;;;;5064372;28;20139;-61
2022/05/17 08:36:59;;;;;;;11.40;2.50;;;;;;;;;;5061407;28;20068;-61
2022/05/17 08:39:26;;;;;;;13.70;3.27;;;;;;;;;;5049673;28;20095;-61
2022/05/17 08:41:55;;;;;;;12.03;3.37;;;;;;;;;;5066730;28;20055;-61
2022/05/17 08:44:23;;;;;;;8.77;2.23;;;;;;;;;;5058550;28;20044;-61
2022/05/17 08:46:50;;;;;;;10.27;2.87;;;;;;;;;;5052661;28;20099;-61
2022/05/17 08:49:21;;;;;;;11.87;3.10;;;;;;;;;;5055315;28;20041;-61
2022/05/17 08:51:54;;;;;;;9.70;3.43;;;;;;;;;;5054446;28;20063;-61
2022/05/17 08:54:23;;;;;;;9.65;2.80;;;;;;;;;;5064832;28;20084;-62
2022/05/17 08:57:15;;;;;;;15.05;3.10;;;;;;;;;;5065009;28;20555;-61
2022/05/17 08:59:42;;;;;;;7.83;2.53;;;;;;;;;;5042500;28;20140;-61
2022/05/17 09:02:12;;;;;;;9.13;2.70;;;;;;;;;;5066947;28;20054;-61
2022/05/17 09:04:50;;;;;;;12.27;2.50;;;;;;;;;;5059358;28;20246;-61
2022/05/17 09:07:24;;;;;;;10.65;2.75;;;;;;;;;;5056366;28;20552;-61
2022/05/17 09:09:53;;;;;;;7.43;2.60;;;;;;;;;;5065375;28;20394;-61
2022/05/17 09:12:29;;;;;;;8.13;2.72;;;;;;;;;;5048035;28;20135;-61
2022/05/17 09:14:57;;;;;;;8.93;2.58;;;;;;;;;;5063697;28;20052;-61
2022/05/17 09:17:25;;;;;;;7.90;2.50;;;;;;;;;;5064918;28;20079;-61
2022/05/17 09:19:51;;;;;;;9.75;2.83;;;;;;;;;;5060886;28;20044;-61
2022/05/17 09:22:17;;;;;;;10.07;2.45;;;;;;;;;;5052957;28;20040;-61
2022/05/17 09:24:45;;;;;;;8.02;2.13;;;;;;;;;;5066518;28;20497;-61
2022/05/17 09:27:30;;;;;;;11.70;2.67;;;;;;;;;;5062050;28;20048;-61
2022/05/17 09:30:03;;;;;;;11.25;2.63;;;;;;;;;;5052456;28;20040;-61
2022/05/17 09:32:29;;;;;;;;;;;;;;;;;;5067846;28;20055;-61
2022/05/17 09:35:00;;;;;;;12.43;2.67;;;;;;;;;;5063284;28;19928;-61
2022/05/17 09:37:31;;;;;;;11.05;2.17;;;;;;;;;;5061935;28;20059;-61
2022/05/17 09:39:57;;;;;;;11.65;2.10;;;;;;;;;;5066600;28;20120;-61
2022/05/17 09:42:44;;;;;;;11.25;2.30;;;;;;;;;;5053837;28;20628;-61
2022/05/17 09:45:16;;;;;;;9.73;2.83;;;;;;;;;;5067350;28;20093;-61
2022/05/17 09:47:44;;;;;;;8.73;2.50;;;;;;;;;;5063646;28;20488;-61
2022/05/17 09:53:02;;;;;;;11.05;2.88;;;;;;;;;;5057963;28;20055;-61
2022/05/17 09:55:30;;;;;;;8.98;2.75;;;;;;;;;;5054485;28;20072;-62
2022/05/17 09:58:00;;;;;;;10.52;2.97;;;;;;;;;;5047237;28;20147;-62
2022/05/17 10:00:31;;;;;;;12.65;2.72;;;;;;;;;;5062256;28;20088;-62
2022/05/17 10:03:00;;;;;;;11.82;2.80;;;;;;;;;;5066448;28;20036;-61
2022/05/17 10:05:28;;;;;;;10.57;2.78;;;;;;;;;;5067318;28;20502;-61
2022/05/17 10:08:02;;;;;;;8.95;2.47;;;;;;;;;;5066603;28;20460;-61
2022/05/17 10:10:37;;;;;;;10.10;2.13;;;;;;;;;;5067313;28;20052;-61
2022/05/17 10:13:26;;;;;;;9.13;2.58;;;;;;;;;;5066122;28;20127;-61
2022/05/17 10:15:55;;;;;;;11.80;2.75;;;;;;;;;;5056466;28;20544;-61
2022/05/17 10:18:34;;;;;;;9.85;2.65;;;;;;;;;;5058763;28;20480;-61
2022/05/17 10:21:05;;;;;;;11.23;2.53;;;;;;;;;;5066014;28;20047;-61
2022/05/17 10:23:38;;;;;;;9.43;2.20;;;;;;;;;;5071432;28;20049;-61
2022/05/17 10:26:07;;;;;;;11.13;2.53;;;;;;;;;;5062823;28;20045;-61
2022/05/17 10:28:33;;;;;;;10.73;3.33;;;;;;;;;;5064356;28;20051;-61
2022/05/17 10:31:22;;;;;;;10.47;2.07;;;;;;;;;;5061923;28;20405;-61
2022/05/17 10:34:07;;;;;;;8.37;2.37;;;;;;;;;;5066302;28;20063;-61
2022/05/17 10:36:37;;;;;;;11.70;2.63;;;;;;;;;;5057501;28;20056;-61
2022/05/17 10:39:11;;;;;;;8.43;2.57;;;;;;;;;;5052352;28;20534;-61
2022/05/17 10:41:37;;;;;;;11.63;2.60;;;;;;;;;;5051313;28;20049;-61
2022/05/17 10:44:04;;;;;;;13.90;3.73;;;;;;;;;;5051020;28;20044;-61
2022/05/17 10:46:31;;;;;;;12.63;3.70;;;;;;;;;;5050458;28;20099;-61
2022/05/17 10:49:06;;;;;;;15.00;3.87;;;;;;;;;;5050188;28;20049;-62
2022/05/17 10:51:56;;;;;;;13.25;3.58;;;;;;;;;;5050702;28;20058;-61
2022/05/17 10:54:29;;;;;;;14.32;3.90;;;;;;;;;;5047741;28;20197;-62
2022/05/17 10:57:07;;;;;;;13.65;3.22;;;;;;;;;;5050857;28;20061;-61
2022/05/17 10:59:48;;;;;;;11.63;4.50;;;;;;;;;;5050281;28;20085;-61
2022/05/17 11:02:25;;;;;;;18.40;5.55;;;;;;;;;;5049488;28;20170;-62
2022/05/17 11:05:02;;;;;;;12.23;3.95;;;;;;;;;;5050748;28;20041;-61
2022/05/17 11:07:37;;;;;;;14.43;4.28;;;;;;;;;;5050565;28;20053;-61
2022/05/17 11:10:09;;;;;;;13.25;4.18;;;;;;;;;;5050529;28;20056;-61
2022/05/17 11:12:40;;;;;;;10.87;3.87;;;;;;;;;;5050406;28;20045;-61
2022/05/17 11:15:13;;;;;;;18.13;4.47;;;;;;;;;;5050130;28;20499;-61
2022/05/17 11:17:54;;;;;;;12.48;4.05;;;;;;;;;;5048837;28;20394;-62
2022/05/17 11:20:29;;;;;;;13.80;5.75;;;;;;;;;;5051532;28;20044;-61
2022/05/17 11:22:58;;;;;;;13.02;4.63;;;;;;;;;;5050259;28;20057;-61
2022/05/17 11:25:37;;;;;;;17.92;5.60;;;;;;;;;;5050373;28;20080;-61
2022/05/17 11:28:21;;;;;;;14.38;4.50;;;;;;;;;;5049635;28;20064;-61
2022/05/17 11:31:06;;;;;;;16.45;4.93;;;;;;;;;;5050457;28;20118;-61
2022/05/17 11:33:39;;;;;;;16.10;4.70;;;;;;;;;;5049611;28;20061;-62
2022/05/17 11:36:07;;;;;;;18.20;6.18;;;;;;;;;;5065625;28;20048;-62
2022/05/17 11:38:33;;;;;;;15.25;4.75;;;;;;;;;;5069373;28;20051;-61
2022/05/17 11:41:00;;;;;;;13.50;4.32;;;;;;;;;;5069744;28;20490;-61
2022/05/17 11:43:40;;;;;;;13.57;4.45;;;;;;;;;;5070219;28;20040;-61
2022/05/17 11:46:06;;;;;;;13.98;4.50;;;;;;;;;;5069720;28;20495;-61
2022/05/17 11:48:46;;;;;;;11.38;4.43;;;;;;;;;;5056036;28;20044;-61
2022/05/17 11:51:12;;;;;;;15.20;4.47;;;;;;;;;;5049038;28;20087;-61
2022/05/17 11:53:42;;;;;;;12.57;4.07;;;;;;;;;;5049517;28;20052;-62
2022/05/17 11:56:12;;;;;;;10.50;4.30;;;;;;;;;;5049654;28;20131;-61
2022/05/17 11:58:38;;;;;;;16.30;5.35;;;;;;;;;;5048415;28;20060;-61
2022/05/17 12:01:24;;;;;;;14.98;4.80;;;;;;;;;;5049451;28;20083;-61
2022/05/17 12:03:51;;;;;;;13.38;4.15;;;;;;;;;;5066726;28;20415;-61
2022/05/17 12:06:39;;;;;;;11.40;4.38;;;;;;;;;;5069303;28;20071;-61
2022/05/17 12:09:26;;;;;;;16.83;4.80;;;;;;;;;;5069363;28;20471;-61
2022/05/17 12:12:11;;;;;;;11.77;4.38;;;;;;;;;;5068229;28;20045;-61
2022/05/17 12:14:41;;;;;;;14.40;5.07;;;;;;;;;;5069339;28;20141;-61
2022/05/17 12:17:15;;;;;;;14.20;4.30;;;;;;;;;;5062764;28;20056;-61
2022/05/17 12:19:41;;;;;;;17.35;4.85;;;;;;;;;;5049035;28;20270;-61
2022/05/17 12:22:24;;;;;;;11.00;3.60;;;;;;;;;;5049017;28;20095;-61
2022/05/17 12:24:54;;;;;;;12.50;4.47;;;;;;;;;;5049275;28;20068;-61
2022/05/17 12:27:20;;;;;;;14.38;4.50;;;;;;;;;;5049385;28;20434;-61
2022/05/17 12:32:53;;;;;;;15.80;4.47;;;;;;;;;;5062846;28;20091;-61
2022/05/17 12:35:24;;;;;;;10.85;5.20;;;;;;;;;;5068824;28;20463;-61
2022/05/17 12:37:50;;;;;;;11.38;4.15;;;;;;;;;;5069279;28;20047;-62
2022/05/17 12:43:29;;;;;;;11.77;4.82;;;;;;;;;;5045723;28;20760;-62
2022/05/17 12:45:56;;;;;;;9.65;3.60;;;;;;;;;;5045377;28;20044;-62
2022/05/17 12:48:24;;;;;;;8.93;3.50;;;;;;;;;;5047379;28;20052;-62
2022/05/17 12:50:52;;;;;;;11.57;4.57;;;;;;;;;;5048641;28;20534;-62
2022/05/17 12:53:22;;;;;;;9.48;3.58;;;;;;;;;;5048622;28;20502;-62
2022/05/17 12:55:56;;;;;;;8.68;3.88;;;;;;;;;;5048625;28;20072;-62
2022/05/17 12:58:22;;;;;;;8.45;2.50;;;;;;;;;;5048209;28;20110;-62
2022/05/17 13:00:55;;;;;;;9.40;3.50;;;;;;;;;;5064035;28;20052;-62
2022/05/17 13:03:23;;;;;;;10.38;3.15;;;;;;;;;;5068506;28;20048;-62
2022/05/17 13:05:51;;;;;;;7.90;3.50;;;;;;;;;;5069075;28;20093;-60
2022/05/17 13:08:28;;;;;;;7.78;2.67;;;;;;;;;;5069000;28;20044;-60
2022/05/17 13:11:02;;;;;;;8.45;2.60;;;;;;;;;;5067128;28;20573;-60
2022/05/17 13:13:31;;;;;;;7.43;3.30;;;;;;;;;;5068779;28;20043;-60
2022/05/17 13:15:59;;;;;;;8.13;3.25;;;;;;;;;;5053180;28;20045;-60
2022/05/17 13:18:32;;;;;;;8.05;3.63;;;;;;;;;;5047979;28;20072;-60
2022/05/17 13:20:59;;;;;;;7.97;2.70;;;;;;;;;;5048552;28;20084;-60
2022/05/17 13:23:26;;;;;;;6.80;2.85;;;;;;;;;;5056809;28;20102;-60
2022/05/17 13:25:55;;;;;;;7.10;2.28;;;;;;;;;;5057373;28;20584;-60
2022/05/17 13:28:26;;;;;;;6.38;2.72;;;;;;;;;;5058168;28;20513;-61
2022/05/17 13:31:00;;;;;;;9.02;3.17;;;;;;;;;;5059336;28;20188;-60
2022/05/17 13:33:30;;;;;;;6.13;2.63;;;;;;;;;;5061738;28;20044;-60
2022/05/17 13:36:05;;;;;;;6.95;2.60;;;;;;;;;;5047846;28;20037;-60
2022/05/17 13:38:33;;;;;;;6.03;2.60;;;;;;;;;;5048115;28;20621;-60
2022/05/17 13:41:01;;;;;;;8.05;2.45;;;;;;;;;;5048162;28;20093;-61
2022/05/17 13:43:31;;;;;;;7.25;2.63;;;;;;;;;;5058790;28;20503;-60
2022/05/17 13:45:59;;;;;;;7.68;2.38;;;;;;;;;;5067547;28;20084;-60
2022/05/17 13:48:26;;;;;;;5.25;2.38;;;;;;;;;;5068482;28;20049;-60
2022/05/17 13:50:56;;;;;;;6.53;2.20;;;;;;;;;;5055720;28;20525;-60
2022/05/17 13:53:22;;;;;;;5.10;1.70;;;;;;;;;;5062091;28;20419;-60
2022/05/17 13:55:48;;;;;;;6.88;2.10;;;;;;;;;;5049618;28;20084;-60
2022/05/17 13:58:15;;;;;;;4.57;1.98;;;;;;;;;;5051872;28;20088;-60
2022/05/17 14:00:59;;;;;;;5.80;2.10;;;;;;;;;;5052412;28;20044;-60
2022/05/17 14:03:26;;;;;;;4.57;2.20;;;;;;;;;;5052546;28;20043;-60
2022/05/17 14:05:51;;;;;;;6.72;2.70;;;;;;;;;;5052401;28;20041;-60
2022/05/17 14:14:10;;;;;;;5.30;2.20;;;;;;;;;;5052068;28;20080;-60
2022/05/17 14:16:39;;;;;;;4.53;2.15;;;;;;;;;;5052612;28;20037;-60
2022/05/17 14:19:05;;;;;;;4.13;1.60;;;;;;;;;;5059701;28;20059;-60
2022/05/17 14:21:31;;;;;;;4.55;1.40;;;;;;;;;;5051970;28;20067;-60
2022/05/17 14:23:57;;;;;;;4.18;1.52;;;;;;;;;;5052037;28;20549;-60
2022/05/17 14:26:24;;;;;;;6.53;2.25;;;;;;;;;;5052336;28;20457;-60
2022/05/17 14:28:51;;;;;;;5.88;2.10;;;;;;;;;;5052526;28;20077;-60
2022/05/17 14:31:26;;;;;;;7.68;2.00;;;;;;;;;;5052014;28;20049;-60
2022/05/17 14:33:52;;;;;;;6.03;2.25;;;;;;;;;;5063241;28;20045;-60
2022/05/17 14:36:20;;;;;;;4.43;1.90;;;;;;;;;;5068303;28;20132;-60
2022/05/17 14:38:46;;;;;;;4.75;1.65;;;;;;;;;;5060397;28;20053;-60
2022/05/17 14:41:13;;;;;;;5.78;2.20;;;;;;;;;;5051054;28;20095;-60
2022/05/17 14:43:40;;;;;;;4.70;2.00;;;;;;;;;;5049712;28;20059;-60
2022/05/17 14:46:06;;;;;;;5.97;2.25;;;;;;;;;;5050963;28;20475;-60
2022/05/17 14:48:32;;;;;;;4.60;1.90;;;;;;;;;;5051313;28;20087;-60
2022/05/17 14:51:00;;;;;;;4.68;2.40;;;;;;;;;;5061031;28;20102;-60
2022/05/17 14:53:26;;;;;;;6.90;2.10;;;;;;;;;;5071087;28;20072;-59
2022/05/17 14:55:52;;;;;;;5.90;2.25;;;;;;;;;;5070427;28;20048;-59
2022/05/17 14:58:19;;;;;;;4.95;1.80;;;;;;;;;;5069008;28;20052;-60
2022/05/17 15:00:46;;;;;;;6.82;2.65;;;;;;;;;;5051801;28;20084;-59
2022/05/17 15:03:18;;;;;;;4.70;2.13;;;;;;;;;;5051109;28;20087;-60